sensor_id;sensor_type;location;lat;lon;timestamp;temperature;humidity
2565;DHT22;1292;48.020;7.822;2023-07-31T05:47:28;18.20;99.90
2565;DHT22;1292;48.020;7.822;2023-07-31T05:49:55;18.30;99.90
2565;DHT22;1292;48.020;7.822;2023-07-31T05:52:22;18.40;99.90
2565;DHT22;1292;48.020;7.822;2023-07-31T05:54:49;18.40;99.90
2565;DHT22;1292;48.020;7.822;2023-07-31T05:57:16;18.50;99.90
2565;DHT22;1292;48.020;7.822;2023-07-31T05:59:42;18.50;99.90
2565;DHT22;1292;48.020;7.822;2023-07-31T06:02:09;18.60;99.90
2565;DHT22;1292;48.020;7.822;2023-07-31T06:04:37;18.70;99.90
2565;DHT22;1292;48.020;7.822;2023-07-31T06:07:04;18.60;99.90
2565;DHT22;1292;48.020;7.822;2023-07-31T06:09:31;18.70;99.90
2565;DHT22;1292;48.020;7.822;2023-07-31T06:11:58;18.80;99.90
2565;DHT22;1292;48.020;7.822;2023-07-31T06:14:25;18.90;99.90
2565;DHT22;1292;48.020;7.822;2023-07-31T06:16:52;18.80;99.90
2565;DHT22;1292;48.020;7.822;2023-07-31T06:19:18;19.00;99.90
2565;DHT22;1292;48.020;7.822;2023-07-31T06:21:47;19.00;99.90
2565;DHT22;1292;48.020;7.822;2023-07-31T06:24:14;19.10;99.90
2565;DHT22;1292;48.020;7.822;2023-07-31T06:26:44;19.00;99.90
2565;DHT22;1292;48.020;7.822;2023-07-31T06:29:11;19.10;99.90
2565;DHT22;1292;48.020;7.822;2023-07-31T06:31:38;19.20;99.90
2565;DHT22;1292;48.020;7.822;2023-07-31T06:34:05;19.10;99.90
2565;DHT22;1292;48.020;7.822;2023-07-31T06:36:31;19.20;99.90
2565;DHT22;1292;48.020;7.822;2023-07-31T06:38:59;19.20;99.90
2565;DHT22;1292;48.020;7.822;2023-07-31T06:41:26;19.20;99.90
2565;DHT22;1292;48.020;7.822;2023-07-31T06:43:53;19.30;99.90
2565;DHT22;1292;48.020;7.822;2023-07-31T06:46:20;19.30;99.90
2565;DHT22;1292;48.020;7.822;2023-07-31T06:48:47;19.30;99.90
2565;DHT22;1292;48.020;7.822;2023-07-31T06:51:14;19.30;99.90
2565;DHT22;1292;48.020;7.822;2023-07-31T06:53:40;19.40;99.90
2565;DHT22;1292;48.020;7.822;2023-07-31T06:56:12;19.30;99.90
2565;DHT22;1292;48.020;7.822;2023-07-31T06:58:39;19.40;99.90
2565;DHT22;1292;48.020;7.822;2023-07-31T07:01:06;19.50;99.90
2565;DHT22;1292;48.020;7.822;2023-07-31T07:03:33;19.50;99.90
2565;DHT22;1292;48.020;7.822;2023-07-31T07:05:59;19.60;99.90
2565;DHT22;1292;48.020;7.822;2023-07-31T07:08:26;19.60;99.90
2565;DHT22;1292;48.020;7.822;2023-07-31T07:10:53;19.60;99.90
2565;DHT22;1292;48.020;7.822;2023-07-31T07:13:22;19.60;99.90
2565;DHT22;1292;48.020;7.822;2023-07-31T07:15:49;19.60;99.90
2565;DHT22;1292;48.020;7.822;2023-07-31T07:18:17;19.50;99.90
2565;DHT22;1292;48.020;7.822;2023-07-31T07:20:46;19.50;99.90
2565;DHT22;1292;48.020;7.822;2023-07-31T07:23:14;19.50;99.90
2565;DHT22;1292;48.020;7.822;2023-07-31T07:25:41;19.60;99.90
2565;DHT22;1292;48.020;7.822;2023-07-31T07:28:08;19.70;99.90
2565;DHT22;1292;48.020;7.822;2023-07-31T07:30:36;19.70;99.90
2565;DHT22;1292;48.020;7.822;2023-07-31T07:33:03;19.80;99.90
2565;DHT22;1292;48.020;7.822;2023-07-31T07:35:30;19.80;99.90
2565;DHT22;1292;48.020;7.822;2023-07-31T07:37:59;19.90;99.90
2565;DHT22;1292;48.020;7.822;2023-07-31T07:40:26;19.90;99.90
2565;DHT22;1292;48.020;7.822;2023-07-31T07:42:53;19.90;99.90
2565;DHT22;1292;48.020;7.822;2023-07-31T07:45:19;20.10;99.90
2565;DHT22;1292;48.020;7.822;2023-07-31T07:47:47;20.20;99.90
2565;DHT22;1292;48.020;7.822;2023-07-31T07:50:14;20.30;99.90
2565;DHT22;1292;48.020;7.822;2023-07-31T07:52:41;20.40;99.90
2565;DHT22;1292;48.020;7.822;2023-07-31T07:55:08;20.50;99.90
2565;DHT22;1292;48.020;7.822;2023-07-31T07:57:35;20.60;99.90
2565;DHT22;1292;48.020;7.822;2023-07-31T08:00:02;20.70;99.90
2565;DHT22;1292;48.020;7.822;2023-07-31T08:02:29;20.80;99.90
2565;DHT22;1292;48.020;7.822;2023-07-31T08:04:57;20.80;99.90
2565;DHT22;1292;48.020;7.822;2023-07-31T08:07:25;20.80;99.90
2565;DHT22;1292;48.020;7.822;2023-07-31T08:09:52;20.70;99.90
2565;DHT22;1292;48.020;7.822;2023-07-31T08:12:19;20.80;99.90
2565;DHT22;1292;48.020;7.822;2023-07-31T08:14:46;20.70;99.90
2565;DHT22;1292;48.020;7.822;2023-07-31T08:17:13;20.70;99.90
2565;DHT22;1292;48.020;7.822;2023-07-31T08:19:39;20.80;99.90
2565;DHT22;1292;48.020;7.822;2023-07-31T08:22:07;20.90;99.90
2565;DHT22;1292;48.020;7.822;2023-07-31T08:24:34;20.90;99.90
2565;DHT22;1292;48.020;7.822;2023-07-31T08:27:01;20.90;99.90
2565;DHT22;1292;48.020;7.822;2023-07-31T08:29:28;21.00;99.90
2565;DHT22;1292;48.020;7.822;2023-07-31T08:31:55;21.00;99.90
2565;DHT22;1292;48.020;7.822;2023-07-31T08:34:22;21.10;99.90
2565;DHT22;1292;48.020;7.822;2023-07-31T08:36:49;21.20;99.90
2565;DHT22;1292;48.020;7.822;2023-07-31T08:39:18;21.30;99.90
2565;DHT22;1292;48.020;7.822;2023-07-31T08:41:45;21.30;99.90
2565;DHT22;1292;48.020;7.822;2023-07-31T08:44:12;21.40;99.90
2565;DHT22;1292;48.020;7.822;2023-07-31T08:46:40;21.40;99.90
2565;DHT22;1292;48.020;7.822;2023-07-31T08:49:07;21.50;99.90
2565;DHT22;1292;48.020;7.822;2023-07-31T08:51:34;21.60;99.90
2565;DHT22;1292;48.020;7.822;2023-07-31T08:54:01;21.60;99.90
2565;DHT22;1292;48.020;7.822;2023-07-31T08:56:31;21.70;99.90
2565;DHT22;1292;48.020;7.822;2023-07-31T08:58:59;21.80;99.90
2565;DHT22;1292;48.020;7.822;2023-07-31T09:01:29;22.00;99.90
2565;DHT22;1292;48.020;7.822;2023-07-31T09:03:58;22.20;99.90
2565;DHT22;1292;48.020;7.822;2023-07-31T09:06:27;22.50;99.90
2565;DHT22;1292;48.020;7.822;2023-07-31T09:08:55;22.90;99.90
2565;DHT22;1292;48.020;7.822;2023-07-31T09:11:22;23.20;99.90
2565;DHT22;1292;48.020;7.822;2023-07-31T09:13:52;23.50;99.90
2565;DHT22;1292;48.020;7.822;2023-07-31T09:16:27;23.50;99.90
2565;DHT22;1292;48.020;7.822;2023-07-31T09:18:56;23.20;99.90
2565;DHT22;1292;48.020;7.822;2023-07-31T09:21:24;23.00;99.90
2565;DHT22;1292;48.020;7.822;2023-07-31T09:23:51;23.00;99.90
2565;DHT22;1292;48.020;7.822;2023-07-31T09:26:29;23.40;99.90
2565;DHT22;1292;48.020;7.822;2023-07-31T09:28:58;23.60;99.90
2565;DHT22;1292;48.020;7.822;2023-07-31T09:31:32;23.80;99.90
2565;DHT22;1292;48.020;7.822;2023-07-31T09:33:59;23.80;99.90
2565;DHT22;1292;48.020;7.822;2023-07-31T09:36:29;23.80;99.90
2565;DHT22;1292;48.020;7.822;2023-07-31T09:39:01;23.60;99.90
2565;DHT22;1292;48.020;7.822;2023-07-31T09:41:28;23.80;99.90
2565;DHT22;1292;48.020;7.822;2023-07-31T09:43:55;23.80;99.90
2565;DHT22;1292;48.020;7.822;2023-07-31T09:46:27;23.60;99.90
2565;DHT22;1292;48.020;7.822;2023-07-31T09:49:06;23.80;99.90
2565;DHT22;1292;48.020;7.822;2023-07-31T09:51:34;23.60;99.90
2565;DHT22;1292;48.020;7.822;2023-07-31T09:54:08;23.50;99.90
2565;DHT22;1292;48.020;7.822;2023-07-31T09:56:36;23.50;99.90
2565;DHT22;1292;48.020;7.822;2023-07-31T09:59:04;23.70;99.90
2565;DHT22;1292;48.020;7.822;2023-07-31T10:01:33;23.70;99.90
2565;DHT22;1292;48.020;7.822;2023-07-31T10:04:01;23.70;99.90
2565;DHT22;1292;48.020;7.822;2023-07-31T10:06:28;23.70;99.90
2565;DHT22;1292;48.020;7.822;2023-07-31T10:08:56;23.60;99.90
2565;DHT22;1292;48.020;7.822;2023-07-31T10:11:25;23.70;99.90
2565;DHT22;1292;48.020;7.822;2023-07-31T10:13:52;23.60;99.90
2565;DHT22;1292;48.020;7.822;2023-07-31T10:16:20;23.60;99.90
2565;DHT22;1292;48.020;7.822;2023-07-31T10:18:49;23.50;99.90
2565;DHT22;1292;48.020;7.822;2023-07-31T10:21:17;23.60;99.90
2565;DHT22;1292;48.020;7.822;2023-07-31T10:23:45;23.60;99.90
2565;DHT22;1292;48.020;7.822;2023-07-31T10:26:13;23.50;99.90
2565;DHT22;1292;48.020;7.822;2023-07-31T10:28:41;23.60;99.90
2565;DHT22;1292;48.020;7.822;2023-07-31T10:31:09;23.60;99.90
2565;DHT22;1292;48.020;7.822;2023-07-31T10:33:36;23.60;99.90
2565;DHT22;1292;48.020;7.822;2023-07-31T10:36:17;23.60;99.90
2565;DHT22;1292;48.020;7.822;2023-07-31T10:38:44;23.70;99.90
2565;DHT22;1292;48.020;7.822;2023-07-31T10:41:11;23.80;99.90
2565;DHT22;1292;48.020;7.822;2023-07-31T10:43:38;24.10;99.90
2565;DHT22;1292;48.020;7.822;2023-07-31T10:46:08;24.20;99.90
2565;DHT22;1292;48.020;7.822;2023-07-31T10:48:36;24.40;99.90
2565;DHT22;1292;48.020;7.822;2023-07-31T10:51:08;24.50;99.90
2565;DHT22;1292;48.020;7.822;2023-07-31T10:53:37;24.60;99.90
2565;DHT22;1292;48.020;7.822;2023-07-31T10:56:05;24.70;99.90
2565;DHT22;1292;48.020;7.822;2023-07-31T10:58:33;24.60;99.90
2565;DHT22;1292;48.020;7.822;2023-07-31T11:01:02;24.70;99.90
2565;DHT22;1292;48.020;7.822;2023-07-31T11:03:41;24.90;99.90
2565;DHT22;1292;48.020;7.822;2023-07-31T11:06:08;25.00;99.90
2565;DHT22;1292;48.020;7.822;2023-07-31T11:08:43;24.90;99.90
2565;DHT22;1292;48.020;7.822;2023-07-31T11:11:11;24.90;99.90
2565;DHT22;1292;48.020;7.822;2023-07-31T11:13:45;24.90;99.90
2565;DHT22;1292;48.020;7.822;2023-07-31T11:16:15;24.90;99.90
2565;DHT22;1292;48.020;7.822;2023-07-31T11:18:43;24.70;99.90
2565;DHT22;1292;48.020;7.822;2023-07-31T11:21:12;24.60;99.90
2565;DHT22;1292;48.020;7.822;2023-07-31T11:23:41;24.60;99.90
2565;DHT22;1292;48.020;7.822;2023-07-31T11:26:08;24.40;99.90
2565;DHT22;1292;48.020;7.822;2023-07-31T11:28:35;24.40;99.90
2565;DHT22;1292;48.020;7.822;2023-07-31T11:31:03;24.50;99.90
2565;DHT22;1292;48.020;7.822;2023-07-31T11:33:30;24.70;99.90
2565;DHT22;1292;48.020;7.822;2023-07-31T11:35:57;24.70;99.90
2565;DHT22;1292;48.020;7.822;2023-07-31T11:38:24;24.50;99.90
2565;DHT22;1292;48.020;7.822;2023-07-31T11:40:53;24.40;99.90
2565;DHT22;1292;48.020;7.822;2023-07-31T11:43:21;24.30;99.90
2565;DHT22;1292;48.020;7.822;2023-07-31T11:45:48;24.40;99.90
2565;DHT22;1292;48.020;7.822;2023-07-31T11:48:19;24.40;99.90
2565;DHT22;1292;48.020;7.822;2023-07-31T11:50:49;24.50;99.90
2565;DHT22;1292;48.020;7.822;2023-07-31T11:53:18;24.50;99.90
2565;DHT22;1292;48.020;7.822;2023-07-31T11:55:46;24.40;99.90
2565;DHT22;1292;48.020;7.822;2023-07-31T11:58:15;24.40;99.90
2565;DHT22;1292;48.020;7.822;2023-07-31T12:00:42;24.30;99.90
2565;DHT22;1292;48.020;7.822;2023-07-31T12:03:10;24.40;99.90
2565;DHT22;1292;48.020;7.822;2023-07-31T12:05:37;24.60;99.90
2565;DHT22;1292;48.020;7.822;2023-07-31T12:08:09;24.70;99.90
2565;DHT22;1292;48.020;7.822;2023-07-31T12:10:37;24.70;99.90
2565;DHT22;1292;48.020;7.822;2023-07-31T12:13:09;24.80;99.90
2565;DHT22;1292;48.020;7.822;2023-07-31T12:15:41;25.10;99.90
2565;DHT22;1292;48.020;7.822;2023-07-31T12:18:09;25.20;99.90
2565;DHT22;1292;48.020;7.822;2023-07-31T12:20:41;25.40;99.90
2565;DHT22;1292;48.020;7.822;2023-07-31T12:23:14;25.70;99.90
2565;DHT22;1292;48.020;7.822;2023-07-31T12:25:40;25.80;99.90
2565;DHT22;1292;48.020;7.822;2023-07-31T12:28:07;26.10;99.90
2565;DHT22;1292;48.020;7.822;2023-07-31T12:30:38;26.20;99.90
2565;DHT22;1292;48.020;7.822;2023-07-31T12:33:12;26.30;99.90
2565;DHT22;1292;48.020;7.822;2023-07-31T12:35:42;26.50;99.90
2565;DHT22;1292;48.020;7.822;2023-07-31T12:38:09;26.60;99.90
2565;DHT22;1292;48.020;7.822;2023-07-31T12:40:37;26.80;99.90
2565;DHT22;1292;48.020;7.822;2023-07-31T12:43:05;26.80;99.90
2565;DHT22;1292;48.020;7.822;2023-07-31T12:45:32;26.90;99.90
2565;DHT22;1292;48.020;7.822;2023-07-31T12:47:59;26.90;99.90
2565;DHT22;1292;48.020;7.822;2023-07-31T12:50:27;26.80;99.90
2565;DHT22;1292;48.020;7.822;2023-07-31T12:52:54;26.60;99.90
2565;DHT22;1292;48.020;7.822;2023-07-31T12:55:21;26.60;99.90
2565;DHT22;1292;48.020;7.822;2023-07-31T12:57:48;26.60;99.90
2565;DHT22;1292;48.020;7.822;2023-07-31T13:00:15;26.60;99.90
2565;DHT22;1292;48.020;7.822;2023-07-31T13:02:42;26.60;99.90
2565;DHT22;1292;48.020;7.822;2023-07-31T13:05:09;26.50;99.90
2565;DHT22;1292;48.020;7.822;2023-07-31T13:07:37;26.50;99.90
2565;DHT22;1292;48.020;7.822;2023-07-31T13:10:05;26.30;99.90
2565;DHT22;1292;48.020;7.822;2023-07-31T13:12:32;26.20;99.90
2565;DHT22;1292;48.020;7.822;2023-07-31T13:14:59;26.20;99.90
2565;DHT22;1292;48.020;7.822;2023-07-31T13:17:26;26.30;99.90
2565;DHT22;1292;48.020;7.822;2023-07-31T13:19:53;26.40;99.90
2565;DHT22;1292;48.020;7.822;2023-07-31T13:22:20;26.60;99.90
2565;DHT22;1292;48.020;7.822;2023-07-31T13:24:48;26.70;99.90
2565;DHT22;1292;48.020;7.822;2023-07-31T13:27:15;26.70;99.90
2565;DHT22;1292;48.020;7.822;2023-07-31T13:29:44;26.70;99.90
2565;DHT22;1292;48.020;7.822;2023-07-31T13:32:11;26.50;99.90
2565;DHT22;1292;48.020;7.822;2023-07-31T13:34:38;26.40;99.90
2565;DHT22;1292;48.020;7.822;2023-07-31T13:37:05;26.40;99.90
2565;DHT22;1292;48.020;7.822;2023-07-31T13:39:32;26.40;99.90
2565;DHT22;1292;48.020;7.822;2023-07-31T13:42:01;26.40;99.90
2565;DHT22;1292;48.020;7.822;2023-07-31T13:44:28;26.40;99.90
2565;DHT22;1292;48.020;7.822;2023-07-31T13:46:55;26.30;99.90
2565;DHT22;1292;48.020;7.822;2023-07-31T13:49:22;26.30;99.90
2565;DHT22;1292;48.020;7.822;2023-07-31T13:51:49;26.30;99.90
2565;DHT22;1292;48.020;7.822;2023-07-31T13:54:15;26.20;99.90
2565;DHT22;1292;48.020;7.822;2023-07-31T13:56:43;26.20;99.90
2565;DHT22;1292;48.020;7.822;2023-07-31T13:59:11;26.30;99.90
2565;DHT22;1292;48.020;7.822;2023-07-31T14:01:40;26.30;99.90
2565;DHT22;1292;48.020;7.822;2023-07-31T14:04:07;26.40;99.90
2565;DHT22;1292;48.020;7.822;2023-07-31T14:06:34;26.40;99.90
2565;DHT22;1292;48.020;7.822;2023-07-31T14:09:00;26.40;99.90
2565;DHT22;1292;48.020;7.822;2023-07-31T14:11:28;26.40;99.90
2565;DHT22;1292;48.020;7.822;2023-07-31T14:13:55;26.40;99.90
2565;DHT22;1292;48.020;7.822;2023-07-31T14:16:24;26.30;99.90
2565;DHT22;1292;48.020;7.822;2023-07-31T14:18:51;26.30;99.90
2565;DHT22;1292;48.020;7.822;2023-07-31T14:21:19;26.20;99.90
2565;DHT22;1292;48.020;7.822;2023-07-31T14:23:45;26.20;99.90
2565;DHT22;1292;48.020;7.822;2023-07-31T14:26:12;26.30;99.90
2565;DHT22;1292;48.020;7.822;2023-07-31T14:28:39;26.20;99.90
2565;DHT22;1292;48.020;7.822;2023-07-31T14:31:05;26.00;99.90
2565;DHT22;1292;48.020;7.822;2023-07-31T14:33:33;26.00;99.90
2565;DHT22;1292;48.020;7.822;2023-07-31T14:36:01;26.00;99.90
2565;DHT22;1292;48.020;7.822;2023-07-31T14:38:28;26.00;99.90
2565;DHT22;1292;48.020;7.822;2023-07-31T14:40:55;26.00;99.90
2565;DHT22;1292;48.020;7.822;2023-07-31T14:43:22;26.00;99.90
2565;DHT22;1292;48.020;7.822;2023-07-31T14:45:49;26.20;99.90
2565;DHT22;1292;48.020;7.822;2023-07-31T14:48:16;26.30;99.90
2565;DHT22;1292;48.020;7.822;2023-07-31T14:50:44;26.20;99.90
2565;DHT22;1292;48.020;7.822;2023-07-31T14:53:10;26.10;99.90
2565;DHT22;1292;48.020;7.822;2023-07-31T14:55:37;26.10;99.90
2565;DHT22;1292;48.020;7.822;2023-07-31T14:58:04;26.10;99.90
2565;DHT22;1292;48.020;7.822;2023-07-31T15:00:31;26.20;99.90
2565;DHT22;1292;48.020;7.822;2023-07-31T15:02:58;26.30;99.90
2565;DHT22;1292;48.020;7.822;2023-07-31T15:05:25;26.20;99.90
2565;DHT22;1292;48.020;7.822;2023-07-31T15:07:53;26.20;99.90
2565;DHT22;1292;48.020;7.822;2023-07-31T15:10:20;26.20;99.90
2565;DHT22;1292;48.020;7.822;2023-07-31T15:12:46;26.20;99.90
2565;DHT22;1292;48.020;7.822;2023-07-31T15:15:14;26.10;99.90
2565;DHT22;1292;48.020;7.822;2023-07-31T15:17:41;25.90;99.90
2565;DHT22;1292;48.020;7.822;2023-07-31T15:20:10;25.90;99.90
2565;DHT22;1292;48.020;7.822;2023-07-31T15:22:37;25.80;99.90
2565;DHT22;1292;48.020;7.822;2023-07-31T15:25:07;25.90;99.90
2565;DHT22;1292;48.020;7.822;2023-07-31T15:27:33;25.80;99.90
2565;DHT22;1292;48.020;7.822;2023-07-31T15:30:00;26.00;99.90
2565;DHT22;1292;48.020;7.822;2023-07-31T15:32:29;26.00;99.90
2565;DHT22;1292;48.020;7.822;2023-07-31T15:34:56;26.00;99.90
2565;DHT22;1292;48.020;7.822;2023-07-31T15:37:23;26.10;99.90
2565;DHT22;1292;48.020;7.822;2023-07-31T15:39:50;26.10;99.90
2565;DHT22;1292;48.020;7.822;2023-07-31T15:42:18;25.90;99.90
2565;DHT22;1292;48.020;7.822;2023-07-31T15:44:45;25.70;99.90
2565;DHT22;1292;48.020;7.822;2023-07-31T15:47:13;25.70;99.90
2565;DHT22;1292;48.020;7.822;2023-07-31T15:49:40;25.60;99.90
2565;DHT22;1292;48.020;7.822;2023-07-31T15:52:07;25.70;99.90
2565;DHT22;1292;48.020;7.822;2023-07-31T15:54:34;25.60;99.90
2565;DHT22;1292;48.020;7.822;2023-07-31T15:57:01;25.50;99.90
2565;DHT22;1292;48.020;7.822;2023-07-31T15:59:29;25.40;99.90
2565;DHT22;1292;48.020;7.822;2023-07-31T16:01:56;25.30;99.90
2565;DHT22;1292;48.020;7.822;2023-07-31T16:04:22;25.30;99.90
2565;DHT22;1292;48.020;7.822;2023-07-31T16:06:49;25.30;99.90
2565;DHT22;1292;48.020;7.822;2023-07-31T16:09:16;25.20;99.90
2565;DHT22;1292;48.020;7.822;2023-07-31T16:11:43;25.20;99.90
2565;DHT22;1292;48.020;7.822;2023-07-31T16:14:10;25.10;99.90
2565;DHT22;1292;48.020;7.822;2023-07-31T16:16:38;25.00;99.90
2565;DHT22;1292;48.020;7.822;2023-07-31T16:19:05;24.90;99.90
2565;DHT22;1292;48.020;7.822;2023-07-31T16:21:31;24.90;99.90
2565;DHT22;1292;48.020;7.822;2023-07-31T16:23:59;24.90;99.90
2565;DHT22;1292;48.020;7.822;2023-07-31T16:26:25;24.90;99.90
2565;DHT22;1292;48.020;7.822;2023-07-31T16:28:52;24.80;99.90
2565;DHT22;1292;48.020;7.822;2023-07-31T16:31:19;24.80;99.90
2565;DHT22;1292;48.020;7.822;2023-07-31T16:33:47;24.80;99.90
2565;DHT22;1292;48.020;7.822;2023-07-31T16:36:14;24.80;99.90
2565;DHT22;1292;48.020;7.822;2023-07-31T16:38:43;24.80;99.90
2565;DHT22;1292;48.020;7.822;2023-07-31T16:41:10;24.60;99.90
2565;DHT22;1292;48.020;7.822;2023-07-31T16:43:37;24.70;99.90
2565;DHT22;1292;48.020;7.822;2023-07-31T16:46:04;24.70;99.90
2565;DHT22;1292;48.020;7.822;2023-07-31T16:48:30;24.70;99.90
2565;DHT22;1292;48.020;7.822;2023-07-31T16:50:59;24.70;99.90
2565;DHT22;1292;48.020;7.822;2023-07-31T16:53:26;24.70;99.90
2565;DHT22;1292;48.020;7.822;2023-07-31T16:55:53;24.70;99.90
2565;DHT22;1292;48.020;7.822;2023-07-31T16:58:20;24.70;99.90
2565;DHT22;1292;48.020;7.822;2023-07-31T17:00:47;24.80;99.90
2565;DHT22;1292;48.020;7.822;2023-07-31T17:03:14;24.80;99.90
2565;DHT22;1292;48.020;7.822;2023-07-31T17:05:40;24.70;99.90
2565;DHT22;1292;48.020;7.822;2023-07-31T17:08:09;24.70;99.90
2565;DHT22;1292;48.020;7.822;2023-07-31T17:10:35;24.60;99.90
2565;DHT22;1292;48.020;7.822;2023-07-31T17:13:02;24.60;99.90
2565;DHT22;1292;48.020;7.822;2023-07-31T17:15:29;24.60;99.90
2565;DHT22;1292;48.020;7.822;2023-07-31T17:17:56;24.60;99.90
2565;DHT22;1292;48.020;7.822;2023-07-31T17:20:22;24.60;99.90
2565;DHT22;1292;48.020;7.822;2023-07-31T17:22:49;24.60;99.90
2565;DHT22;1292;48.020;7.822;2023-07-31T17:25:18;24.60;99.90
2565;DHT22;1292;48.020;7.822;2023-07-31T17:27:44;24.60;99.90
2565;DHT22;1292;48.020;7.822;2023-07-31T17:30:12;24.60;99.90
2565;DHT22;1292;48.020;7.822;2023-07-31T17:32:39;24.60;99.90
2565;DHT22;1292;48.020;7.822;2023-07-31T17:35:06;24.60;99.90
2565;DHT22;1292;48.020;7.822;2023-07-31T17:37:33;24.60;99.90
2565;DHT22;1292;48.020;7.822;2023-07-31T17:40:00;24.50;99.90
2565;DHT22;1292;48.020;7.822;2023-07-31T17:42:28;24.50;99.90
2565;DHT22;1292;48.020;7.822;2023-07-31T17:44:54;24.50;99.90
2565;DHT22;1292;48.020;7.822;2023-07-31T17:47:21;24.40;99.90
2565;DHT22;1292;48.020;7.822;2023-07-31T17:49:48;24.50;99.90
2565;DHT22;1292;48.020;7.822;2023-07-31T17:52:15;24.40;99.90
2565;DHT22;1292;48.020;7.822;2023-07-31T17:54:42;24.40;99.90
2565;DHT22;1292;48.020;7.822;2023-07-31T17:57:10;24.40;99.90
2565;DHT22;1292;48.020;7.822;2023-07-31T17:59:38;24.40;99.90
2565;DHT22;1292;48.020;7.822;2023-07-31T18:02:05;24.40;99.90
2565;DHT22;1292;48.020;7.822;2023-07-31T18:04:32;24.30;99.90
2565;DHT22;1292;48.020;7.822;2023-07-31T18:06:59;24.20;99.90
2565;DHT22;1292;48.020;7.822;2023-07-31T18:09:26;24.20;99.90
2565;DHT22;1292;48.020;7.822;2023-07-31T18:11:53;24.20;99.90
2565;DHT22;1292;48.020;7.822;2023-07-31T18:14:20;24.20;99.90
2565;DHT22;1292;48.020;7.822;2023-07-31T18:16:51;24.10;99.90
2565;DHT22;1292;48.020;7.822;2023-07-31T18:19:18;24.10;99.90
2565;DHT22;1292;48.020;7.822;2023-07-31T18:21:45;24.00;99.90
2565;DHT22;1292;48.020;7.822;2023-07-31T18:24:11;24.00;99.90
2565;DHT22;1292;48.020;7.822;2023-07-31T18:26:38;24.00;99.90
2565;DHT22;1292;48.020;7.822;2023-07-31T18:29:05;24.00;99.90
2565;DHT22;1292;48.020;7.822;2023-07-31T18:31:32;24.00;99.90
2565;DHT22;1292;48.020;7.822;2023-07-31T18:34:00;24.00;99.90
2565;DHT22;1292;48.020;7.822;2023-07-31T18:36:26;24.00;99.90
2565;DHT22;1292;48.020;7.822;2023-07-31T18:38:53;23.90;99.90
2565;DHT22;1292;48.020;7.822;2023-07-31T18:41:20;23.80;99.90
2565;DHT22;1292;48.020;7.822;2023-07-31T18:43:47;23.80;99.90
2565;DHT22;1292;48.020;7.822;2023-07-31T18:46:14;23.70;99.90
2565;DHT22;1292;48.020;7.822;2023-07-31T18:48:42;23.70;99.90
2565;DHT22;1292;48.020;7.822;2023-07-31T18:51:10;23.60;99.90
2565;DHT22;1292;48.020;7.822;2023-07-31T18:53:37;23.60;99.90
2565;DHT22;1292;48.020;7.822;2023-07-31T18:56:04;23.60;99.90
2565;DHT22;1292;48.020;7.822;2023-07-31T18:58:31;23.60;99.90
2565;DHT22;1292;48.020;7.822;2023-07-31T19:00:58;23.50;99.90
2565;DHT22;1292;48.020;7.822;2023-07-31T19:03:24;23.50;99.90
2565;DHT22;1292;48.020;7.822;2023-07-31T19:05:59;23.50;99.90
2565;DHT22;1292;48.020;7.822;2023-07-31T19:08:27;23.50;99.90
2565;DHT22;1292;48.020;7.822;2023-07-31T19:10:54;23.50;99.90
2565;DHT22;1292;48.020;7.822;2023-07-31T19:13:21;23.50;99.90
2565;DHT22;1292;48.020;7.822;2023-07-31T19:15:48;23.50;99.90
2565;DHT22;1292;48.020;7.822;2023-07-31T19:18:15;23.50;99.90
2565;DHT22;1292;48.020;7.822;2023-07-31T19:20:43;23.50;99.90
2565;DHT22;1292;48.020;7.822;2023-07-31T19:23:09;23.50;99.90
2565;DHT22;1292;48.020;7.822;2023-07-31T19:25:38;23.40;99.90
2565;DHT22;1292;48.020;7.822;2023-07-31T19:28:04;23.40;99.90
2565;DHT22;1292;48.020;7.822;2023-07-31T19:30:31;23.40;99.90
2565;DHT22;1292;48.020;7.822;2023-07-31T19:32:58;23.40;99.90
2565;DHT22;1292;48.020;7.822;2023-07-31T19:35:25;23.40;99.90
2565;DHT22;1292;48.020;7.822;2023-07-31T19:37:52;23.40;99.90
2565;DHT22;1292;48.020;7.822;2023-07-31T19:40:19;23.30;99.90
2565;DHT22;1292;48.020;7.822;2023-07-31T19:42:49;23.30;99.90
2565;DHT22;1292;48.020;7.822;2023-07-31T19:45:15;23.30;99.90
2565;DHT22;1292;48.020;7.822;2023-07-31T19:47:42;23.20;99.90
2565;DHT22;1292;48.020;7.822;2023-07-31T19:50:09;23.20;99.90
2565;DHT22;1292;48.020;7.822;2023-07-31T19:52:36;23.10;99.90
2565;DHT22;1292;48.020;7.822;2023-07-31T19:55:03;23.10;99.90
2565;DHT22;1292;48.020;7.822;2023-07-31T19:57:30;23.10;99.90
2565;DHT22;1292;48.020;7.822;2023-07-31T19:59:59;23.10;99.90
2565;DHT22;1292;48.020;7.822;2023-07-31T20:02:25;23.00;99.90
2565;DHT22;1292;48.020;7.822;2023-07-31T20:04:52;23.00;99.90
2565;DHT22;1292;48.020;7.822;2023-07-31T20:07:19;23.00;99.90
2565;DHT22;1292;48.020;7.822;2023-07-31T20:09:46;23.00;99.90
2565;DHT22;1292;48.020;7.822;2023-07-31T20:12:13;23.00;99.90
2565;DHT22;1292;48.020;7.822;2023-07-31T20:14:40;23.00;99.90
2565;DHT22;1292;48.020;7.822;2023-07-31T20:17:08;23.00;99.90
2565;DHT22;1292;48.020;7.822;2023-07-31T20:19:35;22.90;99.90
2565;DHT22;1292;48.020;7.822;2023-07-31T20:22:02;22.90;99.90
2565;DHT22;1292;48.020;7.822;2023-07-31T20:24:28;22.80;99.90
2565;DHT22;1292;48.020;7.822;2023-07-31T20:26:55;22.80;99.90
2565;DHT22;1292;48.020;7.822;2023-07-31T20:29:22;22.90;99.90
2565;DHT22;1292;48.020;7.822;2023-07-31T20:31:49;22.80;99.90
2565;DHT22;1292;48.020;7.822;2023-07-31T20:34:17;22.70;99.90
2565;DHT22;1292;48.020;7.822;2023-07-31T20:36:44;22.60;99.90
2565;DHT22;1292;48.020;7.822;2023-07-31T20:39:10;22.40;99.90
2565;DHT22;1292;48.020;7.822;2023-07-31T20:41:37;22.30;99.90
2565;DHT22;1292;48.020;7.822;2023-07-31T20:44:04;22.30;99.90
2565;DHT22;1292;48.020;7.822;2023-07-31T20:46:31;22.30;99.90
2565;DHT22;1292;48.020;7.822;2023-07-31T20:48:58;22.30;99.90
2565;DHT22;1292;48.020;7.822;2023-07-31T20:51:26;22.30;99.90
2565;DHT22;1292;48.020;7.822;2023-07-31T20:53:53;22.30;99.90
2565;DHT22;1292;48.020;7.822;2023-07-31T20:56:19;22.20;99.90
2565;DHT22;1292;48.020;7.822;2023-07-31T20:58:46;22.20;99.90
2565;DHT22;1292;48.020;7.822;2023-07-31T21:01:13;22.20;99.90
2565;DHT22;1292;48.020;7.822;2023-07-31T21:03:40;22.20;99.90
2565;DHT22;1292;48.020;7.822;2023-07-31T21:06:06;22.30;99.90
2565;DHT22;1292;48.020;7.822;2023-07-31T21:08:35;22.30;99.90
2565;DHT22;1292;48.020;7.822;2023-07-31T21:11:01;22.40;99.90
2565;DHT22;1292;48.020;7.822;2023-07-31T21:13:28;22.40;99.90
2565;DHT22;1292;48.020;7.822;2023-07-31T21:15:58;22.40;99.90
2565;DHT22;1292;48.020;7.822;2023-07-31T21:18:25;22.40;99.90
2565;DHT22;1292;48.020;7.822;2023-07-31T21:20:52;22.40;99.90
2565;DHT22;1292;48.020;7.822;2023-07-31T21:23:19;22.40;99.90
2565;DHT22;1292;48.020;7.822;2023-07-31T21:25:47;22.30;99.90
2565;DHT22;1292;48.020;7.822;2023-07-31T21:28:14;22.30;99.90
2565;DHT22;1292;48.020;7.822;2023-07-31T21:30:41;22.30;99.90
2565;DHT22;1292;48.020;7.822;2023-07-31T21:33:08;22.20;99.90
2565;DHT22;1292;48.020;7.822;2023-07-31T21:35:35;22.20;99.90
2565;DHT22;1292;48.020;7.822;2023-07-31T21:38:02;22.10;99.90
